Time;durP1;ratioP1;P1;durP2;ratioP2;P2;SDS_P1;SDS_P2;PMS_P1;PMS_P2;Temp;Humidity;BMP_temperature;BMP_pressure;BME280_temperature;BME280_humidity;BME280_pressure;Samples;Min_cycle;Max_cycle;Signal;HPM_P1;HPM_P2
2021/09/08 00:01:26;;;;;;;1.83;1.40;;;17.70;71.90;;;;;;4987856;28;20053;-83
2021/09/08 00:03:52;;;;;;;1.60;1.30;;;17.70;72.00;;;;;;4988022;28;20045;-83
2021/09/08 00:06:18;;;;;;;2.08;1.45;;;17.70;71.90;;;;;;4970827;28;20035;-83
2021/09/08 00:08:44;;;;;;;2.25;1.40;;;17.70;71.90;;;;;;4987836;28;20257;-83
2021/09/08 00:11:09;;;;;;;3.50;1.70;;;17.70;71.90;;;;;;4987696;28;20165;-83
2021/09/08 00:13:36;;;;;;;2.05;1.30;;;17.70;71.90;;;;;;4987659;28;20065;-83
2021/09/08 00:16:01;;;;;;;1.77;1.30;;;17.70;71.90;;;;;;4987749;28;20039;-83
2021/09/08 00:18:27;;;;;;;2.03;1.27;;;17.70;71.80;;;;;;4987597;28;20097;-83
2021/09/08 00:20:53;;;;;;;2.03;1.40;;;17.70;71.90;;;;;;4987346;28;20069;-83
2021/09/08 00:23:19;;;;;;;3.00;1.42;;;17.70;71.70;;;;;;4987836;28;20057;-83
2021/09/08 00:25:45;;;;;;;1.63;1.33;;;17.70;71.60;;;;;;4987565;28;20085;-83
2021/09/08 00:28:11;;;;;;;1.38;1.20;;;17.70;71.70;;;;;;4987410;28;20011;-83
2021/09/08 00:30:37;;;;;;;2.35;1.38;;;17.60;71.70;;;;;;4970225;28;20058;-83
2021/09/08 00:33:03;;;;;;;2.67;1.48;;;17.60;71.60;;;;;;4987387;28;20043;-83
2021/09/08 00:35:29;;;;;;;1.65;1.13;;;17.70;71.70;;;;;;4986282;28;20030;-83
2021/09/08 00:37:55;;;;;;;2.50;1.45;;;17.70;71.60;;;;;;4987301;28;20501;-83
2021/09/08 00:40:23;;;;;;;2.85;1.42;;;17.70;71.80;;;;;;4987178;28;20094;-83
2021/09/08 00:42:49;;;;;;;2.28;1.45;;;17.70;71.70;;;;;;4987021;28;20042;-83
2021/09/08 00:45:18;;;;;;;2.15;1.48;;;17.70;71.70;;;;;;4987220;28;20038;-83
2021/09/08 00:47:45;;;;;;;2.45;1.50;;;17.60;71.50;;;;;;4987187;28;20053;-83
2021/09/08 00:50:11;;;;;;;2.58;0.98;;;17.60;71.40;;;;;;4986825;28;20145;-83
2021/09/08 00:52:41;;;;;;;1.95;1.52;;;17.70;71.50;;;;;;4989102;28;20038;-83
2021/09/08 00:55:10;;;;;;;2.05;1.20;;;17.60;71.40;;;;;;4991738;28;20121;-83
2021/09/08 00:57:38;;;;;;;2.28;1.35;;;17.70;71.40;;;;;;4986668;28;20031;-83
2021/09/08 01:00:05;;;;;;;4.30;1.27;;;17.60;71.30;;;;;;4986913;28;20035;-83
2021/09/08 01:02:33;;;;;;;2.03;1.40;;;17.60;71.40;;;;;;4986935;28;20046;-83
2021/09/08 01:05:01;;;;;;;2.15;1.15;;;17.70;71.50;;;;;;4986881;28;20115;-84
2021/09/08 01:07:28;;;;;;;1.80;1.40;;;17.60;71.40;;;;;;4986091;28;20457;-83
2021/09/08 01:09:54;;;;;;;2.63;1.27;;;17.60;71.50;;;;;;4985520;28;20062;-83
2021/09/08 01:12:22;;;;;;;1.45;1.20;;;17.60;71.40;;;;;;4986780;28;20049;-83
2021/09/08 01:14:50;;;;;;;2.13;1.40;;;17.60;71.50;;;;;;4985729;28;20094;-83
2021/09/08 01:17:20;;;;;;;1.35;1.15;;;17.50;71.40;;;;;;4986726;28;20015;-83
2021/09/08 01:19:46;;;;;;;1.10;1.00;;;17.60;71.40;;;;;;4985279;28;20035;-83
2021/09/08 01:22:13;;;;;;;3.45;1.38;;;17.60;71.40;;;;;;4985604;28;20058;-83
2021/09/08 01:24:43;;;;;;;1.73;1.30;;;17.60;71.40;;;;;;4986461;28;20027;-83
2021/09/08 01:27:09;;;;;;;2.33;1.40;;;17.60;71.40;;;;;;4986430;28;20034;-83
2021/09/08 01:29:35;;;;;;;1.75;1.30;;;17.50;71.40;;;;;;4986246;28;20059;-83
2021/09/08 01:32:01;;;;;;;2.85;1.02;;;17.60;71.40;;;;;;4986107;28;20058;-83
2021/09/08 01:34:27;;;;;;;2.10;1.50;;;17.60;71.40;;;;;;4985401;28;20510;-83
2021/09/08 01:36:53;;;;;;;2.08;1.30;;;17.50;71.40;;;;;;4986406;28;20038;-83
2021/09/08 01:39:20;;;;;;;1.73;1.17;;;17.60;71.40;;;;;;4985924;28;20053;-83
2021/09/08 01:41:48;;;;;;;2.35;1.40;;;17.50;71.30;;;;;;4986257;28;20046;-83
2021/09/08 01:44:22;;;;;;;3.67;1.77;;;17.60;71.40;;;;;;4985881;28;20035;-83
2021/09/08 01:46:51;;;;;;;1.83;1.25;;;17.60;71.30;;;;;;4985619;28;20031;-83
2021/09/08 01:49:17;;;;;;;3.42;1.50;;;17.60;71.30;;;;;;4984948;28;20030;-83
2021/09/08 01:51:43;;;;;;;2.13;1.08;;;17.60;71.20;;;;;;4985897;28;20130;-83
2021/09/08 01:54:09;;;;;;;3.75;1.30;;;17.50;71.20;;;;;;4985713;28;20035;-83
2021/09/08 01:56:35;;;;;;;2.50;1.20;;;17.50;71.20;;;;;;4985756;28;20039;-83
2021/09/08 01:59:01;;;;;;;2.58;1.48;;;17.50;71.20;;;;;;4984732;28;20042;-83
2021/09/08 02:01:27;;;;;;;2.65;1.20;;;17.60;71.40;;;;;;4983686;28;20047;-83
2021/09/08 02:03:53;;;;;;;2.25;1.42;;;17.50;71.30;;;;;;4988676;28;20127;-82
2021/09/08 02:06:20;;;;;;;2.58;1.75;;;17.50;71.30;;;;;;4986475;28;20035;-83
2021/09/08 02:08:46;;;;;;;3.55;1.55;;;17.50;71.40;;;;;;4984533;28;20042;-83
2021/09/08 02:11:12;;;;;;;1.67;1.23;;;17.50;71.40;;;;;;4985480;28;20043;-82
2021/09/08 02:13:38;;;;;;;3.38;1.52;;;17.50;71.40;;;;;;4984410;28;20043;-83
2021/09/08 02:16:04;;;;;;;2.13;1.30;;;17.50;72.00;;;;;;4985490;28;20206;-83
2021/09/08 02:18:30;;;;;;;2.05;1.40;;;17.50;71.30;;;;;;4985609;28;20426;-83
2021/09/08 02:20:56;;;;;;;1.70;1.30;;;17.50;71.20;;;;;;4985294;28;20053;-83
2021/09/08 02:23:22;;;;;;;2.65;1.40;;;17.50;71.20;;;;;;4985409;28;20042;-83
2021/09/08 02:25:47;;;;;;;1.63;1.27;;;17.50;71.30;;;;;;4985302;28;20057;-83
2021/09/08 02:28:18;;;;;;;3.30;1.65;;;17.50;71.20;;;;;;4985245;28;20035;-84
2021/09/08 02:30:44;;;;;;;1.30;1.20;;;17.50;71.20;;;;;;4983549;28;20067;-83
2021/09/08 02:33:09;;;;;;;2.67;1.42;;;17.50;71.30;;;;;;4984139;28;20038;-83
2021/09/08 02:35:35;;;;;;;2.70;1.33;;;17.50;71.20;;;;;;5000225;28;20043;-83
2021/09/08 02:38:01;;;;;;;2.33;1.80;;;17.50;71.20;;;;;;4984651;28;20047;-83
2021/09/08 02:40:27;;;;;;;2.20;1.23;;;17.40;71.20;;;;;;4984824;28;20138;-83
2021/09/08 02:42:53;;;;;;;2.05;1.48;;;17.50;71.20;;;;;;4984917;28;20102;-83
2021/09/08 02:45:19;;;;;;;2.28;1.50;;;17.50;71.20;;;;;;4984844;28;20031;-83
2021/09/08 02:47:45;;;;;;;2.25;1.30;;;17.50;71.20;;;;;;4984963;28;20007;-83
2021/09/08 02:50:11;;;;;;;1.98;1.30;;;17.50;71.30;;;;;;4985122;28;20053;-83
2021/09/08 02:52:37;;;;;;;1.73;1.40;;;17.50;71.20;;;;;;4983776;28;20045;-83
2021/09/08 02:55:03;;;;;;;3.42;1.48;;;17.40;71.20;;;;;;4984787;28;20066;-83
2021/09/08 02:57:29;;;;;;;3.92;1.38;;;17.50;71.30;;;;;;4984548;28;20449;-83
2021/09/08 02:59:55;;;;;;;1.95;1.33;;;17.50;71.40;;;;;;4984560;28;20038;-83
2021/09/08 03:02:21;;;;;;;3.88;1.38;;;17.40;71.40;;;;;;4984589;28;20065;-83
2021/09/08 03:04:47;;;;;;;2.20;1.23;;;17.40;71.40;;;;;;4984502;28;20042;-83
2021/09/08 03:07:12;;;;;;;2.85;1.65;;;17.40;71.40;;;;;;4984435;28;20042;-83
2021/09/08 03:09:38;;;;;;;2.65;1.42;;;17.40;71.50;;;;;;4984494;28;20037;-83
2021/09/08 03:12:04;;;;;;;2.13;1.30;;;17.40;71.40;;;;;;4984466;28;20038;-83
2021/09/08 03:14:30;;;;;;;3.08;1.30;;;17.40;71.40;;;;;;4986488;28;20027;-83
2021/09/08 03:16:56;;;;;;;4.10;1.50;;;17.40;72.00;;;;;;4987420;28;20034;-83
2021/09/08 03:19:22;;;;;;;4.05;1.35;;;17.40;71.40;;;;;;4984558;28;20054;-83
2021/09/08 03:21:48;;;;;;;3.05;1.20;;;17.40;71.50;;;;;;4984162;28;20035;-83
2021/09/08 03:24:14;;;;;;;3.03;1.48;;;17.40;71.60;;;;;;4984574;28;20030;-83
2021/09/08 03:26:40;;;;;;;2.35;1.33;;;17.40;71.70;;;;;;4984709;28;20090;-83
2021/09/08 03:29:06;;;;;;;1.70;1.25;;;17.40;71.70;;;;;;4983000;28;20130;-83
2021/09/08 03:31:31;;;;;;;2.85;1.40;;;17.40;71.70;;;;;;4983910;28;20069;-83
2021/09/08 03:33:57;;;;;;;2.15;1.50;;;17.40;71.70;;;;;;4984017;28;20046;-83
2021/09/08 03:36:23;;;;;;;4.78;1.65;;;17.40;71.70;;;;;;4984408;28;20049;-83
2021/09/08 03:38:49;;;;;;;2.40;1.40;;;17.40;71.70;;;;;;4983139;28;20078;-83
2021/09/08 03:41:15;;;;;;;2.20;1.30;;;17.40;71.80;;;;;;4983173;28;20066;-83
2021/09/08 03:43:41;;;;;;;2.05;1.27;;;17.40;71.70;;;;;;4984151;28;20031;-83
2021/09/08 03:46:08;;;;;;;2.10;1.35;;;17.40;71.70;;;;;;4984260;28;20049;-83
2021/09/08 03:48:34;;;;;;;3.13;1.27;;;17.40;71.60;;;;;;4983047;28;20130;-83
2021/09/08 03:51:01;;;;;;;3.47;1.60;;;17.50;71.60;;;;;;4984123;28;20043;-82
2021/09/08 03:53:26;;;;;;;2.20;1.17;;;17.40;71.60;;;;;;4984073;28;20051;-82
2021/09/08 03:55:52;;;;;;;1.65;1.40;;;17.50;71.60;;;;;;4982667;28;20078;-82
2021/09/08 03:58:18;;;;;;;3.25;1.98;;;17.40;71.50;;;;;;4983959;28;20050;-82
2021/09/08 04:00:44;;;;;;;2.20;1.38;;;17.50;71.60;;;;;;4982797;28;20070;-82
2021/09/08 04:03:10;;;;;;;2.80;1.30;;;17.50;71.50;;;;;;4984036;28;20056;-82
2021/09/08 04:05:36;;;;;;;2.75;1.52;;;17.50;71.40;;;;;;4984108;28;20038;-83
2021/09/08 04:08:02;;;;;;;2.47;1.35;;;17.40;71.40;;;;;;4984455;28;20413;-82
2021/09/08 04:10:31;;;;;;;2.95;1.73;;;17.50;71.40;;;;;;4983920;28;20092;-83
2021/09/08 04:12:57;;;;;;;5.90;1.58;;;17.50;71.40;;;;;;4983894;28;20042;-82
2021/09/08 04:15:23;;;;;;;3.00;1.80;;;17.50;71.40;;;;;;4984197;28;20039;-83
2021/09/08 04:17:49;;;;;;;5.03;1.73;;;17.50;71.50;;;;;;4984124;28;20130;-81
2021/09/08 04:20:15;;;;;;;4.50;1.52;;;17.50;71.50;;;;;;4983722;28;20070;-83
2021/09/08 04:22:42;;;;;;;3.92;1.95;;;17.60;71.60;;;;;;4983108;28;20035;-82
2021/09/08 04:25:08;;;;;;;3.75;1.48;;;17.50;71.60;;;;;;4985500;28;20049;-82
2021/09/08 04:27:34;;;;;;;2.28;1.70;;;17.50;71.50;;;;;;4989712;28;20039;-83
2021/09/08 04:30:00;;;;;;;4.70;2.10;;;17.50;71.50;;;;;;4987312;28;20085;-82
2021/09/08 04:32:26;;;;;;;2.95;1.92;;;17.50;71.50;;;;;;4987107;28;20124;-82
2021/09/08 04:34:52;;;;;;;3.67;1.98;;;17.50;71.50;;;;;;4987243;28;20042;-82
2021/09/08 04:37:17;;;;;;;2.00;1.75;;;17.50;71.50;;;;;;4987256;28;20030;-82
2021/09/08 04:39:44;;;;;;;3.15;2.00;;;17.60;71.50;;;;;;4987017;28;20038;-84
2021/09/08 04:42:10;;;;;;;4.35;1.92;;;17.60;71.40;;;;;;4987048;28;20074;-84
2021/09/08 04:44:36;;;;;;;2.75;1.77;;;17.60;71.40;;;;;;4987001;28;20034;-84
2021/09/08 04:47:02;;;;;;;2.25;1.50;;;17.60;71.40;;;;;;4986840;28;20551;-83
2021/09/08 04:49:28;;;;;;;2.97;2.15;;;17.60;71.40;;;;;;4985977;28;20041;-83
2021/09/08 04:51:54;;;;;;;2.13;1.60;;;17.60;71.30;;;;;;4987123;28;20090;-83
2021/09/08 04:54:20;;;;;;;2.50;1.63;;;17.60;71.20;;;;;;4986822;28;20039;-83
2021/09/08 04:56:46;;;;;;;3.53;2.05;;;17.70;71.20;;;;;;4985590;28;20073;-84
2021/09/08 04:59:11;;;;;;;3.67;1.70;;;17.60;71.20;;;;;;4985532;28;20047;-83
2021/09/08 05:01:37;;;;;;;3.78;2.28;;;17.60;71.10;;;;;;4985494;28;20038;-83
2021/09/08 05:04:03;;;;;;;2.95;2.13;;;17.60;71.10;;;;;;4985417;28;20039;-83
2021/09/08 05:06:29;;;;;;;3.67;1.50;;;17.70;71.20;;;;;;4986757;28;20039;-83
2021/09/08 05:08:56;;;;;;;3.38;2.20;;;17.70;71.00;;;;;;4985404;28;20069;-83
2021/09/08 05:11:22;;;;;;;2.38;1.77;;;17.70;71.00;;;;;;4986371;28;20074;-83
2021/09/08 05:13:48;;;;;;;3.47;2.00;;;17.70;71.00;;;;;;4969578;28;20038;-82
2021/09/08 05:16:14;;;;;;;1.80;1.50;;;17.80;71.00;;;;;;4986214;28;20113;-83
2021/09/08 05:18:40;;;;;;;2.83;1.90;;;17.80;70.90;;;;;;4986708;28;20041;-83
2021/09/08 05:21:06;;;;;;;2.38;1.80;;;17.80;70.80;;;;;;4986410;28;20058;-83
2021/09/08 05:23:32;;;;;;;2.47;1.77;;;17.80;70.80;;;;;;4986342;28;20039;-84
2021/09/08 05:25:58;;;;;;;1.92;1.73;;;17.80;70.60;;;;;;4986291;28;20046;-83
2021/09/08 05:28:24;;;;;;;2.28;1.65;;;17.90;70.60;;;;;;4986167;28;20043;-83
2021/09/08 05:30:50;;;;;;;2.25;1.60;;;17.90;70.40;;;;;;4986078;28;20063;-84
2021/09/08 05:33:16;;;;;;;3.03;1.75;;;18.00;70.40;;;;;;4985200;28;20039;-84
2021/09/08 05:35:42;;;;;;;2.95;1.58;;;18.00;70.40;;;;;;4985659;28;20089;-83
2021/09/08 05:38:08;;;;;;;2.45;1.83;;;18.00;70.20;;;;;;4988020;28;20042;-84
2021/09/08 05:40:34;;;;;;;4.68;2.10;;;18.10;70.20;;;;;;4984978;28;20492;-83
2021/09/08 05:43:01;;;;;;;2.00;1.65;;;18.10;70.00;;;;;;4985169;28;20493;-84
2021/09/08 05:45:27;;;;;;;4.03;1.77;;;18.20;69.90;;;;;;4986037;28;20505;-83
2021/09/08 05:47:53;;;;;;;2.42;1.88;;;18.20;69.80;;;;;;4985645;28;20520;-84
2021/09/08 05:50:19;;;;;;;3.22;1.80;;;18.30;69.70;;;;;;4986202;28;20139;-83
2021/09/08 05:52:45;;;;;;;2.47;1.90;;;18.30;69.60;;;;;;4985965;28;20417;-83
2021/09/08 05:55:11;;;;;;;2.17;1.80;;;18.50;70.10;;;;;;4985884;28;20042;-83
2021/09/08 05:57:37;;;;;;;2.40;1.73;;;18.60;70.30;;;;;;4985701;28;20039;-82
2021/09/08 06:00:04;;;;;;;2.17;1.67;;;18.80;70.20;;;;;;4985659;28;20035;-83
2021/09/08 06:02:37;;;;;;;1.88;1.50;;;19.00;70.00;;;;;;4985654;28;20058;-83
2021/09/08 06:05:03;;;;;;;1.60;1.50;;;19.20;69.80;;;;;;4984785;28;20085;-83
2021/09/08 06:07:29;;;;;;;2.03;1.50;;;19.30;69.30;;;;;;4985609;28;20418;-84
2021/09/08 06:09:55;;;;;;;2.45;1.45;;;19.40;69.10;;;;;;4985362;28;20035;-83
2021/09/08 06:12:21;;;;;;;3.85;1.65;;;19.50;68.90;;;;;;4985555;28;20450;-83
2021/09/08 06:14:47;;;;;;;3.35;1.60;;;19.60;68.70;;;;;;4985252;28;20038;-84
2021/09/08 06:17:13;;;;;;;8.63;1.63;;;19.70;68.70;;;;;;4985455;28;20058;-84
2021/09/08 06:19:38;;;;;;;1.80;1.30;;;19.90;68.60;;;;;;4985236;28;20105;-84
2021/09/08 06:22:04;;;;;;;2.08;1.80;;;20.10;68.30;;;;;;4985503;28;20482;-84
2021/09/08 06:24:30;;;;;;;2.72;1.52;;;20.40;67.60;;;;;;4985302;28;20034;-84
2021/09/08 06:26:56;;;;;;;3.60;1.60;;;20.70;66.90;;;;;;4985140;28;20034;-84
2021/09/08 06:29:22;;;;;;;4.93;3.60;;;20.90;66.10;;;;;;4984886;28;20058;-84
2021/09/08 06:31:48;;;;;;;7.70;4.10;;;20.90;65.90;;;;;;4985104;28;20055;-83
2021/09/08 06:34:14;;;;;;;4.97;4.00;;;21.00;66.00;;;;;;4984113;28;20043;-84
2021/09/08 06:36:40;;;;;;;6.60;4.38;;;21.00;65.90;;;;;;4985462;28;20093;-83
2021/09/08 06:39:06;;;;;;;5.93;3.72;;;20.90;65.80;;;;;;4985441;28;20039;-82
2021/09/08 06:41:32;;;;;;;5.78;3.80;;;20.80;65.80;;;;;;4984990;28;20042;-83
2021/09/08 06:43:58;;;;;;;5.25;3.30;;;20.80;66.10;;;;;;4985317;28;20047;-83
2021/09/08 06:46:24;;;;;;;4.20;2.90;;;20.70;66.40;;;;;;4984781;28;20066;-84
2021/09/08 06:48:49;;;;;;;3.60;2.95;;;20.60;66.60;;;;;;4988025;28;20027;-83
2021/09/08 06:51:16;;;;;;;4.22;3.05;;;20.60;66.80;;;;;;4985338;28;20043;-84
2021/09/08 06:53:42;;;;;;;2.92;2.60;;;20.50;67.50;;;;;;4984806;28;20051;-84
2021/09/08 06:56:08;;;;;;;2.70;2.10;;;20.40;66.80;;;;;;4983473;28;20062;-84
2021/09/08 06:58:34;;;;;;;3.80;2.40;;;20.40;66.90;;;;;;4984574;28;20038;-84
2021/09/08 07:00:59;;;;;;;4.72;2.58;;;20.40;67.00;;;;;;4984696;28;20034;-84
2021/09/08 07:03:25;;;;;;;3.20;2.20;;;20.40;67.00;;;;;;4983762;28;20034;-84
2021/09/08 07:05:52;;;;;;;2.20;2.00;;;20.30;67.10;;;;;;4984198;28;20039;-84
2021/09/08 07:08:21;;;;;;;3.92;1.80;;;20.30;67.40;;;;;;4984842;28;20031;-84
2021/09/08 07:10:48;;;;;;;4.72;2.03;;;20.20;67.60;;;;;;4984844;28;20405;-83
2021/09/08 07:13:15;;;;;;;3.50;2.00;;;20.20;67.60;;;;;;4983355;28;20521;-84
2021/09/08 07:15:41;;;;;;;4.07;1.70;;;20.20;67.80;;;;;;4983652;28;20600;-84
2021/09/08 07:18:07;;;;;;;3.08;1.88;;;20.10;67.60;;;;;;4984313;28;20046;-84
2021/09/08 07:20:33;;;;;;;2.95;1.80;;;20.10;67.50;;;;;;4984236;28;20066;-84
2021/09/08 07:22:59;;;;;;;4.07;1.77;;;20.10;67.30;;;;;;4984750;28;20038;-84
2021/09/08 07:25:26;;;;;;;7.18;2.20;;;20.10;67.30;;;;;;4984452;28;20050;-84
2021/09/08 07:27:53;;;;;;;5.07;1.85;;;20.10;67.40;;;;;;4984466;28;20093;-83
2021/09/08 07:30:19;;;;;;;6.43;2.25;;;20.10;67.20;;;;;;4984378;28;20062;-84
2021/09/08 07:32:45;;;;;;;3.28;1.98;;;20.10;67.20;;;;;;4985043;28;20470;-83
2021/09/08 07:35:11;;;;;;;3.80;1.85;;;20.00;67.60;;;;;;4983143;28;20039;-84
2021/09/08 07:37:37;;;;;;;2.08;1.80;;;20.00;67.00;;;;;;4984189;28;20082;-83
2021/09/08 07:40:06;;;;;;;3.60;2.03;;;20.00;66.60;;;;;;4982956;28;20045;-83
2021/09/08 07:42:33;;;;;;;3.75;2.05;;;20.00;66.70;;;;;;4983186;28;20042;-83
2021/09/08 07:44:59;;;;;;;5.20;1.95;;;20.00;66.50;;;;;;4984653;28;20038;-84
2021/09/08 07:47:25;;;;;;;3.88;1.85;;;20.00;66.50;;;;;;4984970;28;20055;-84
2021/09/08 07:49:52;;;;;;;5.10;1.90;;;20.00;66.50;;;;;;4983892;28;20077;-84
2021/09/08 07:52:20;;;;;;;4.03;1.75;;;19.90;66.20;;;;;;4984579;28;20039;-84
2021/09/08 07:54:46;;;;;;;3.25;1.65;;;19.90;65.90;;;;;;4984100;28;20035;-84
2021/09/08 07:57:12;;;;;;;6.30;3.08;;;19.90;65.80;;;;;;4983078;28;20039;-84
2021/09/08 07:59:39;;;;;;;5.15;3.05;;;19.90;65.80;;;;;;4987402;28;20054;-83
2021/09/08 08:02:05;;;;;;;5.32;2.00;;;19.80;65.80;;;;;;4989342;28;20058;-84
2021/09/08 08:04:31;;;;;;;2.95;2.30;;;19.80;65.70;;;;;;4987557;28;20070;-84
2021/09/08 08:06:57;;;;;;;4.88;1.88;;;19.80;65.50;;;;;;4987681;28;20126;-84
2021/09/08 08:09:23;;;;;;;3.65;2.58;;;19.80;65.40;;;;;;4987471;28;20098;-84
2021/09/08 08:11:49;;;;;;;3.38;1.98;;;19.80;65.30;;;;;;4986611;28;20066;-84
2021/09/08 08:14:16;;;;;;;5.65;1.90;;;19.70;65.30;;;;;;4987722;28;20070;-83
2021/09/08 08:16:42;;;;;;;2.60;1.80;;;19.80;65.30;;;;;;4987607;28;20513;-84
2021/09/08 08:19:08;;;;;;;2.50;1.90;;;19.70;65.30;;;;;;4987817;28;20045;-83
2021/09/08 08:21:34;;;;;;;2.05;1.85;;;19.70;65.20;;;;;;4987462;28;20133;-83
2021/09/08 08:24:01;;;;;;;4.55;1.90;;;19.70;65.20;;;;;;4987323;28;20126;-83
2021/09/08 08:26:27;;;;;;;2.67;1.85;;;19.70;65.30;;;;;;4986522;28;20046;-83
2021/09/08 08:28:53;;;;;;;3.78;1.90;;;19.70;65.30;;;;;;4987720;28;20022;-83
2021/09/08 08:31:19;;;;;;;3.83;1.90;;;19.60;65.30;;;;;;4987115;28;20062;-84
2021/09/08 08:33:48;;;;;;;3.40;2.00;;;19.60;65.50;;;;;;4987205;28;20081;-83
2021/09/08 08:36:14;;;;;;;2.88;1.85;;;19.60;65.60;;;;;;4987372;28;20065;-84
2021/09/08 08:38:42;;;;;;;2.83;1.88;;;19.60;65.60;;;;;;4970147;28;20042;-83
2021/09/08 08:41:08;;;;;;;4.43;1.80;;;19.60;65.70;;;;;;4986102;28;20572;-84
2021/09/08 08:43:34;;;;;;;3.45;1.40;;;19.70;65.60;;;;;;4986364;28;20031;-83
2021/09/08 08:46:02;;;;;;;2.65;1.45;;;19.60;65.50;;;;;;4987498;28;20053;-84
2021/09/08 08:48:28;;;;;;;3.42;1.88;;;19.70;65.70;;;;;;4985972;28;20348;-84
2021/09/08 08:50:54;;;;;;;3.05;1.70;;;19.60;66.00;;;;;;4985986;28;20312;-84
2021/09/08 08:53:19;;;;;;;2.75;1.65;;;19.60;66.00;;;;;;4987036;28;20117;-84
2021/09/08 08:55:45;;;;;;;2.65;2.03;;;19.70;66.00;;;;;;4985880;28;20446;-83
2021/09/08 08:58:11;;;;;;;3.53;1.90;;;19.70;65.90;;;;;;4986960;28;20074;-84
2021/09/08 09:00:39;;;;;;;3.60;2.00;;;19.80;66.10;;;;;;4985347;28;20031;-84
2021/09/08 09:03:05;;;;;;;1.90;1.63;;;19.80;66.10;;;;;;4986888;28;20035;-83
2021/09/08 09:05:37;;;;;;;2.47;2.05;;;19.80;65.60;;;;;;4986722;28;20099;-83
2021/09/08 09:08:05;;;;;;;3.13;1.70;;;19.80;66.00;;;;;;4986445;28;20417;-83
2021/09/08 09:10:32;;;;;;;2.58;1.88;;;19.80;65.80;;;;;;4989324;28;20042;-83
2021/09/08 09:12:58;;;;;;;2.67;1.70;;;19.80;65.80;;;;;;4989819;28;20042;-84
2021/09/08 09:15:25;;;;;;;2.92;1.80;;;19.80;65.80;;;;;;4985455;28;20039;-84
2021/09/08 09:17:52;;;;;;;5.60;2.03;;;19.70;65.60;;;;;;4985483;28;20415;-84
2021/09/08 09:20:26;;;;;;;3.67;1.70;;;19.70;65.40;;;;;;4986425;28;20050;-84
2021/09/08 09:22:58;;;;;;;4.77;1.80;;;19.70;65.50;;;;;;4986424;28;20038;-83
2021/09/08 09:25:27;;;;;;;2.45;1.60;;;19.70;65.50;;;;;;4985341;28;20294;-83
2021/09/08 09:27:56;;;;;;;5.53;1.90;;;19.70;65.40;;;;;;4986194;28;20041;-84
2021/09/08 09:30:24;;;;;;;5.30;1.98;;;19.70;65.40;;;;;;4986220;28;20054;-84
2021/09/08 09:32:52;;;;;;;4.20;2.00;;;19.60;65.40;;;;;;4985102;28;20039;-83
2021/09/08 09:35:21;;;;;;;3.30;1.60;;;19.60;65.30;;;;;;4985690;28;20070;-84
2021/09/08 09:37:49;;;;;;;2.47;1.50;;;19.60;65.40;;;;;;4986292;28;20034;-84
2021/09/08 09:40:17;;;;;;;4.13;1.77;;;19.60;65.40;;;;;;4986079;28;20038;-84
2021/09/08 09:42:45;;;;;;;2.92;1.65;;;19.60;65.40;;;;;;4984969;28;20065;-84
2021/09/08 09:45:13;;;;;;;2.10;1.75;;;19.50;65.40;;;;;;4986001;28;20090;-83
2021/09/08 09:47:45;;;;;;;3.05;1.60;;;19.50;65.30;;;;;;4986369;28;20039;-84
2021/09/08 09:50:19;;;;;;;2.22;1.58;;;19.50;65.30;;;;;;4984759;28;20049;-84
2021/09/08 09:52:47;;;;;;;5.28;1.90;;;19.50;65.20;;;;;;4985744;28;20066;-84
2021/09/08 09:55:14;;;;;;;3.10;1.70;;;19.50;65.20;;;;;;4985819;28;20038;-84
2021/09/08 09:57:41;;;;;;;3.30;2.25;;;19.40;65.10;;;;;;4985835;28;20041;-84
2021/09/08 10:00:10;;;;;;;4.28;2.20;;;19.40;65.30;;;;;;4984611;28;20031;-84
2021/09/08 10:02:39;;;;;;;3.67;1.83;;;19.50;65.40;;;;;;4985556;28;20039;-84
2021/09/08 10:05:06;;;;;;;4.97;1.88;;;19.50;65.50;;;;;;4984363;28;20035;-84
2021/09/08 10:07:34;;;;;;;3.45;1.83;;;19.50;65.40;;;;;;4985536;28;20037;-84
2021/09/08 10:10:12;;;;;;;2.65;1.75;;;19.50;65.40;;;;;;4984600;28;20034;-84
2021/09/08 10:12:44;;;;;;;2.55;1.90;;;19.60;65.40;;;;;;4985327;28;20034;-84
2021/09/08 10:15:14;;;;;;;3.53;2.08;;;19.50;65.30;;;;;;4985478;28;20038;-83
2021/09/08 10:17:45;;;;;;;4.57;1.77;;;19.50;65.40;;;;;;4985191;28;20038;-83
2021/09/08 10:20:19;;;;;;;3.83;1.90;;;19.50;65.40;;;;;;4985456;28;20134;-84
2021/09/08 10:22:46;;;;;;;5.55;2.30;;;19.50;65.60;;;;;;4989675;28;20037;-83
2021/09/08 10:25:15;;;;;;;14.73;2.05;;;19.50;65.60;;;;;;4985435;28;20031;-83
2021/09/08 10:27:42;;;;;;;4.18;2.05;;;19.50;65.60;;;;;;4984080;28;20035;-83
2021/09/08 10:30:11;;;;;;;2.78;2.00;;;19.50;65.60;;;;;;4983798;28;20050;-83
2021/09/08 10:32:38;;;;;;;2.72;1.48;;;19.40;65.60;;;;;;4985211;28;20085;-83
2021/09/08 10:35:18;;;;;;;2.58;2.10;;;19.40;65.50;;;;;;4984928;28;20066;-83
2021/09/08 10:37:49;;;;;;;2.58;2.20;;;19.40;65.60;;;;;;4985259;28;20061;-83
2021/09/08 10:40:17;;;;;;;3.17;2.13;;;19.40;65.50;;;;;;4985439;28;20474;-83
2021/09/08 10:42:58;;;;;;;2.58;2.15;;;19.40;65.70;;;;;;4984587;28;20035;-83
2021/09/08 10:45:26;;;;;;;2.13;1.80;;;19.40;65.60;;;;;;4984117;28;20030;-83
2021/09/08 10:47:54;;;;;;;3.85;2.00;;;19.40;65.60;;;;;;4984926;28;20035;-83
2021/09/08 10:50:35;;;;;;;4.80;1.95;;;19.30;65.60;;;;;;4984731;28;20042;-83
2021/09/08 10:53:22;;;;;;;3.42;1.70;;;19.30;65.60;;;;;;4983507;28;20478;-83
2021/09/08 10:55:50;;;;;;;4.65;2.00;;;19.30;65.80;;;;;;4984741;28;20034;-82
2021/09/08 10:58:16;;;;;;;3.15;2.20;;;19.30;65.80;;;;;;4984656;28;20031;-83
2021/09/08 11:00:44;;;;;;;2.55;1.70;;;19.30;65.80;;;;;;4984021;28;20078;-83
2021/09/08 11:03:15;;;;;;;4.85;2.20;;;19.30;65.70;;;;;;4984487;28;20034;-83
2021/09/08 11:05:57;;;;;;;4.82;1.95;;;19.30;65.70;;;;;;4984327;28;20125;-82
2021/09/08 11:08:33;;;;;;;3.95;2.30;;;19.30;65.70;;;;;;4983754;28;20185;-82
2021/09/08 11:11:17;;;;;;;2.78;2.03;;;19.30;65.80;;;;;;4984584;28;20129;-83
2021/09/08 11:13:44;;;;;;;3.38;1.80;;;19.30;65.70;;;;;;4967245;28;20046;-82
2021/09/08 11:16:20;;;;;;;2.88;1.80;;;19.30;65.70;;;;;;4983463;28;20043;-83
2021/09/08 11:18:46;;;;;;;4.35;1.80;;;19.30;65.80;;;;;;4984207;28;20066;-82
2021/09/08 11:21:14;;;;;;;6.07;2.25;;;19.30;65.80;;;;;;4983233;28;20058;-82
2021/09/08 11:23:39;;;;;;;4.35;2.17;;;19.30;65.90;;;;;;4984276;28;20038;-82
2021/09/08 11:26:08;;;;;;;3.63;1.85;;;19.30;65.90;;;;;;4984347;28;20045;-83
2021/09/08 11:28:35;;;;;;;2.90;1.73;;;19.30;66.00;;;;;;4984461;28;20221;-82
2021/09/08 11:31:10;;;;;;;2.30;1.70;;;19.30;65.90;;;;;;4983295;28;20035;-82
2021/09/08 11:33:37;;;;;;;6.00;1.90;;;19.20;65.90;;;;;;4986216;28;20094;-83
2021/09/08 11:36:17;;;;;;;6.75;2.42;;;19.30;65.90;;;;;;4989400;28;20038;-84
2021/09/08 11:38:49;;;;;;;7.00;4.68;;;19.20;65.80;;;;;;4988132;28;20073;-82
2021/09/08 11:41:16;;;;;;;3.00;2.70;;;19.30;65.90;;;;;;4988191;28;20047;-82
2021/09/08 11:43:51;;;;;;;3.70;2.55;;;19.20;66.00;;;;;;4988451;28;20098;-82
2021/09/08 11:46:25;;;;;;;3.90;2.47;;;19.20;65.90;;;;;;4987206;28;20039;-84
2021/09/08 11:48:54;;;;;;;3.10;2.40;;;19.20;66.00;;;;;;4988035;28;20118;-82
2021/09/08 11:51:22;;;;;;;6.25;2.50;;;19.20;66.10;;;;;;4988296;28;20096;-82
2021/09/08 11:53:50;;;;;;;4.10;2.63;;;19.20;66.00;;;;;;4987866;28;20042;-82
2021/09/08 11:56:26;;;;;;;3.63;2.00;;;19.30;66.10;;;;;;4986963;28;20042;-82
2021/09/08 11:58:53;;;;;;;5.43;2.15;;;19.30;66.10;;;;;;4987861;28;20043;-84
2021/09/08 12:01:20;;;;;;;3.70;2.20;;;19.30;66.10;;;;;;4986642;28;20035;-83
2021/09/08 12:03:53;;;;;;;5.70;2.30;;;19.30;66.10;;;;;;4987101;28;20035;-82
2021/09/08 12:06:24;;;;;;;4.10;2.00;;;19.30;66.10;;;;;;4986871;28;20072;-84
2021/09/08 12:08:53;;;;;;;4.63;2.50;;;19.30;66.00;;;;;;4987685;28;20106;-82
2021/09/08 12:11:34;;;;;;;3.10;2.10;;;19.30;66.00;;;;;;4970812;28;20046;-82
2021/09/08 12:14:17;;;;;;;5.18;2.00;;;19.40;66.20;;;;;;4987803;28;20042;-84
2021/09/08 12:16:43;;;;;;;5.57;2.20;;;19.40;66.00;;;;;;4987458;28;20045;-84
2021/09/08 12:19:18;;;;;;;5.32;2.60;;;19.40;66.00;;;;;;4987454;28;20034;-84
2021/09/08 12:21:45;;;;;;;3.78;2.40;;;19.40;66.00;;;;;;4987368;28;20038;-82
2021/09/08 12:24:24;;;;;;;4.75;2.42;;;19.40;66.00;;;;;;4987216;28;20038;-85
2021/09/08 12:26:51;;;;;;;5.18;2.80;;;19.40;66.10;;;;;;4986677;28;20118;-84
2021/09/08 12:29:18;;;;;;;6.57;2.63;;;19.50;66.00;;;;;;4987435;28;20058;-84
2021/09/08 12:31:49;;;;;;;5.63;2.40;;;19.50;66.10;;;;;;4986117;28;20057;-84
2021/09/08 12:34:16;;;;;;;5.22;2.40;;;19.40;65.90;;;;;;4986578;28;20413;-84
2021/09/08 12:36:42;;;;;;;3.88;2.40;;;19.40;65.80;;;;;;4969816;28;20039;-84
2021/09/08 12:39:19;;;;;;;8.80;5.35;;;19.50;65.90;;;;;;4987383;28;20034;-84
2021/09/08 12:42:00;;;;;;;5.20;3.78;;;19.50;66.00;;;;;;4986179;28;20050;-83
2021/09/08 12:44:34;;;;;;;3.38;2.67;;;19.40;65.90;;;;;;4987474;28;20042;-83
2021/09/08 12:47:13;;;;;;;6.10;3.20;;;19.40;66.00;;;;;;4989533;28;20039;-83
2021/09/08 12:49:40;;;;;;;10.95;2.80;;;19.50;65.90;;;;;;4987364;28;20035;-84